createdAt,value
2022-12-28T00:02:28.282Z,72.07
2022-12-28T00:05:00.242Z,72.16
2022-12-28T00:07:31.839Z,72.05
2022-12-28T00:10:03.538Z,72.05
2022-12-28T00:12:35.238Z,72.36
2022-12-28T00:15:08.308Z,72.18
2022-12-28T00:17:39.910Z,72.16
2022-12-28T00:20:13.817Z,72.13
2022-12-28T00:22:45.449Z,72.03
2022-12-28T00:25:17.787Z,72.15
2022-12-28T00:27:50.552Z,72.05
2022-12-28T00:30:22.265Z,72.06
2022-12-28T00:32:54.123Z,72.27
2022-12-28T00:35:25.750Z,72.23
2022-12-28T00:37:57.365Z,72.19
2022-12-28T00:40:29.192Z,72.20
2022-12-28T00:43:00.820Z,72.08
2022-12-28T00:45:32.481Z,72.21
2022-12-28T00:48:04.427Z,72.17
2022-12-28T00:50:36.071Z,72.28
2022-12-28T00:53:08.124Z,72.41
2022-12-28T00:55:40.111Z,72.32
2022-12-28T00:58:12.326Z,72.20
2022-12-28T01:00:44.032Z,72.15
2022-12-28T01:03:15.763Z,72.22
2022-12-28T01:05:47.570Z,72.06
2022-12-28T01:08:19.201Z,72.31
2022-12-28T01:10:51.120Z,72.30
2022-12-28T01:13:22.836Z,72.32
2022-12-28T01:15:54.435Z,72.51
2022-12-28T01:18:26.138Z,72.35
2022-12-28T01:20:57.719Z,72.40
2022-12-28T01:23:29.280Z,72.48
2022-12-28T01:26:05.513Z,72.54
2022-12-28T01:28:37.598Z,72.43
2022-12-28T01:31:11.679Z,72.60
2022-12-28T01:33:43.643Z,72.60
2022-12-28T01:36:17.418Z,72.52
2022-12-28T01:38:49.871Z,72.77
2022-12-28T01:41:22.729Z,72.64
2022-12-28T01:44:25.036Z,72.67
2022-12-28T01:46:59.201Z,72.81
2022-12-28T01:49:34.199Z,72.63
2022-12-28T01:52:11.368Z,72.70
2022-12-28T01:54:46.851Z,72.66
2022-12-28T01:57:19.776Z,72.73
2022-12-28T01:59:55.953Z,72.76
2022-12-28T02:02:29.236Z,72.77
2022-12-28T02:05:00.256Z,72.75
2022-12-28T02:07:41.186Z,72.79
2022-12-28T02:10:43.733Z,72.92
2022-12-28T02:13:08.526Z,72.81
2022-12-28T02:15:40.241Z,72.92
2022-12-28T02:18:13.648Z,72.72
2022-12-28T02:21:00.821Z,72.76
2022-12-28T02:23:50.223Z,72.86
2022-12-28T02:26:44.661Z,73.05
2022-12-28T02:29:29.497Z,73.16
2022-12-28T02:32:18.118Z,73.49
2022-12-28T02:35:00.208Z,73.32
2022-12-28T02:37:37.880Z,73.60
2022-12-28T02:40:14.630Z,73.81
2022-12-28T02:42:47.533Z,73.88
2022-12-28T02:45:54.287Z,73.86
2022-12-28T02:48:44.667Z,74.01
2022-12-28T02:51:33.255Z,74.15
2022-12-28T02:54:47.227Z,74.38
2022-12-28T02:57:29.491Z,74.79
2022-12-28T03:00:09.140Z,74.87
2022-12-28T03:02:54.613Z,75.45
2022-12-28T03:05:55.627Z,75.25
2022-12-28T03:08:37.578Z,75.63
2022-12-28T03:11:15.861Z,75.78
2022-12-28T03:13:54.066Z,76.37
2022-12-28T03:16:30.877Z,76.74
2022-12-28T03:19:24.974Z,76.57
2022-12-28T03:22:15.424Z,76.61
2022-12-28T03:25:05.767Z,76.74
2022-12-28T03:27:56.256Z,76.83
2022-12-28T03:30:45.638Z,76.78
2022-12-28T03:33:17.408Z,76.85
2022-12-28T03:35:56.761Z,76.92
2022-12-28T03:38:34.430Z,77.34
2022-12-28T03:41:10.592Z,77.14
2022-12-28T03:43:47.396Z,77.60
2022-12-28T03:46:23.668Z,77.53
2022-12-28T03:48:56.661Z,77.42
2022-12-28T03:51:31.874Z,77.42
2022-12-28T03:54:03.552Z,77.91
2022-12-28T03:56:35.144Z,77.66
2022-12-28T03:59:06.808Z,77.78
2022-12-28T04:01:38.700Z,77.77
2022-12-28T04:04:11.221Z,77.67
2022-12-28T04:06:44.047Z,77.47
2022-12-28T04:09:16.051Z,77.37
2022-12-28T04:11:47.673Z,77.37
2022-12-28T04:14:19.407Z,77.44
2022-12-28T04:16:51.150Z,77.44
2022-12-28T04:19:22.869Z,77.33
2022-12-28T04:21:54.484Z,77.39
2022-12-28T04:24:26.157Z,77.67
2022-12-28T04:26:57.855Z,77.44
2022-12-28T04:29:29.577Z,77.51
2022-12-28T04:32:01.165Z,77.27
2022-12-28T04:34:32.743Z,77.30
2022-12-28T04:37:04.514Z,77.31
2022-12-28T04:39:54.921Z,77.30
2022-12-28T04:42:28.668Z,76.95
2022-12-28T04:45:00.365Z,77.18
2022-12-28T04:47:32.042Z,77.16
2022-12-28T04:50:03.863Z,77.03
2022-12-28T04:52:36.204Z,77.11
2022-12-28T04:55:32.053Z,77.32
2022-12-28T04:58:01.477Z,77.27
2022-12-28T05:00:33.164Z,77.34
2022-12-28T05:03:05.441Z,77.22
2022-12-28T05:05:38.027Z,77.20
2022-12-28T05:08:09.843Z,77.15
2022-12-28T05:10:41.536Z,77.08
2022-12-28T05:13:13.155Z,77.17
2022-12-28T05:15:44.771Z,77.27
2022-12-28T05:18:16.420Z,77.05
2022-12-28T05:20:48.180Z,77.09
2022-12-28T05:23:19.820Z,76.94
2022-12-28T05:25:57.068Z,77.12
2022-12-28T05:28:29.273Z,76.85
2022-12-28T05:31:04.517Z,76.80
2022-12-28T05:33:37.900Z,76.95
2022-12-28T05:36:13.237Z,76.85
2022-12-28T05:38:45.170Z,76.70
2022-12-28T05:41:18.587Z,76.89
2022-12-28T05:43:50.780Z,76.84
2022-12-28T05:46:24.380Z,76.64
2022-12-28T05:48:56.589Z,76.66
2022-12-28T05:51:30.317Z,76.71
2022-12-28T05:54:04.458Z,76.97
2022-12-28T05:56:36.416Z,76.90
2022-12-28T05:59:09.047Z,77.03
2022-12-28T06:01:44.484Z,76.92
2022-12-28T06:04:19.570Z,77.14
2022-12-28T06:06:52.182Z,77.09
2022-12-28T06:09:23.860Z,77.41
2022-12-28T06:11:55.527Z,77.36
2022-12-28T06:14:27.121Z,77.26
2022-12-28T06:16:58.847Z,77.42
2022-12-28T06:19:30.587Z,77.43
2022-12-28T06:22:02.171Z,77.56
2022-12-28T06:24:34.813Z,77.66
2022-12-28T06:27:06.552Z,77.68
2022-12-28T06:29:38.133Z,77.62
2022-12-28T06:32:09.842Z,77.85
2022-12-28T06:34:41.591Z,77.87
2022-12-28T06:37:13.323Z,77.61
2022-12-28T06:39:44.877Z,77.77
2022-12-28T06:42:16.480Z,77.67
2022-12-28T06:44:48.129Z,77.70
2022-12-28T06:47:20.072Z,77.76
2022-12-28T06:49:51.852Z,77.75
2022-12-28T06:52:23.544Z,77.97
2022-12-28T06:54:55.170Z,77.74
2022-12-28T06:57:26.906Z,77.76
2022-12-28T06:59:58.698Z,77.74
2022-12-28T07:02:30.384Z,77.79
2022-12-28T07:05:02.189Z,77.81
2022-12-28T07:07:33.769Z,77.81
2022-12-28T07:10:06.023Z,77.90
2022-12-28T07:12:37.980Z,78.06
2022-12-28T07:15:12.272Z,78.04
2022-12-28T07:17:43.871Z,77.91
2022-12-28T07:20:15.691Z,77.88
2022-12-28T07:22:47.529Z,77.98
2022-12-28T07:25:19.427Z,77.88
2022-12-28T07:27:51.062Z,77.85
2022-12-28T07:30:22.834Z,77.89
2022-12-28T07:32:54.645Z,77.75
2022-12-28T07:35:26.963Z,77.75
2022-12-28T07:37:58.534Z,77.78
2022-12-28T07:40:30.219Z,77.67
2022-12-28T07:43:03.323Z,77.75
2022-12-28T07:45:35.140Z,77.60
2022-12-28T07:48:07.177Z,77.52
2022-12-28T07:50:38.857Z,77.41
2022-12-28T07:53:10.461Z,77.52
2022-12-28T07:55:43.565Z,77.56
2022-12-28T07:58:15.199Z,77.43
2022-12-28T08:00:46.825Z,77.25
2022-12-28T08:03:18.556Z,77.33
2022-12-28T08:05:50.303Z,77.19
2022-12-28T08:08:23.963Z,76.98
2022-12-28T08:10:55.701Z,77.16
2022-12-28T08:13:27.328Z,77.04
2022-12-28T08:15:59.075Z,77.06
2022-12-28T08:18:30.981Z,76.91
2022-12-28T08:21:05.634Z,76.93
2022-12-28T08:23:37.300Z,76.85
2022-12-28T08:26:10.770Z,76.87
2022-12-28T08:28:41.775Z,76.77
2022-12-28T08:31:16.111Z,76.53
2022-12-28T08:33:48.752Z,76.52
2022-12-28T08:36:20.412Z,76.51
2022-12-28T08:38:53.181Z,76.52
2022-12-28T08:41:26.652Z,76.24
2022-12-28T08:43:59.241Z,75.98
2022-12-28T08:46:32.634Z,76.11
2022-12-28T08:49:05.787Z,75.77
2022-12-28T08:51:41.514Z,75.99
2022-12-28T08:54:14.874Z,75.76
2022-12-28T08:56:47.518Z,75.53
2022-12-28T08:59:21.346Z,75.34
2022-12-28T09:01:53.085Z,75.17
2022-12-28T09:04:24.894Z,75.27
2022-12-28T09:06:56.683Z,75.31
2022-12-28T09:09:28.565Z,75.31
2022-12-28T09:12:00.168Z,75.34
2022-12-28T09:14:31.831Z,74.67
2022-12-28T09:17:03.810Z,74.84
2022-12-28T09:19:35.792Z,74.91
2022-12-28T09:22:07.512Z,74.89
2022-12-28T09:24:40.177Z,74.79
2022-12-28T09:27:13.480Z,74.61
2022-12-28T09:29:45.862Z,74.35
2022-12-28T09:32:17.491Z,74.34
2022-12-28T09:34:49.083Z,74.21
2022-12-28T09:37:20.943Z,73.92
2022-12-28T09:39:55.579Z,73.81
2022-12-28T09:42:32.791Z,73.74
2022-12-28T09:45:09.782Z,73.40
2022-12-28T09:47:47.458Z,73.41
2022-12-28T09:50:32.438Z,73.36
2022-12-28T09:53:20.067Z,73.17
2022-12-28T09:55:59.573Z,73.09
2022-12-28T09:58:33.667Z,73.07
2022-12-28T10:01:10.735Z,72.96
2022-12-28T10:03:45.339Z,72.71
2022-12-28T10:06:18.788Z,72.48
2022-12-28T10:08:53.011Z,72.23
2022-12-28T10:11:29.300Z,72.24
2022-12-28T10:14:04.521Z,72.32
2022-12-28T10:16:36.730Z,72.43
2022-12-28T10:19:12.655Z,72.50
2022-12-28T10:21:46.389Z,72.15
2022-12-28T10:24:33.543Z,71.88
2022-12-28T10:27:08.625Z,71.72
2022-12-28T10:29:42.787Z,71.78
2022-12-28T10:32:14.691Z,71.55
2022-12-28T10:34:58.577Z,71.65
2022-12-28T10:37:30.358Z,71.22
2022-12-28T10:40:07.394Z,71.20
2022-12-28T10:42:42.271Z,71.00
2022-12-28T10:45:21.689Z,71.09
2022-12-28T10:47:56.434Z,71.10
2022-12-28T10:50:51.627Z,70.80
2022-12-28T10:53:30.963Z,70.80
2022-12-28T10:56:21.834Z,70.80
2022-12-28T10:58:54.849Z,70.86
2022-12-28T11:01:31.557Z,70.44
2022-12-28T11:04:08.079Z,70.77
2022-12-28T11:06:54.183Z,70.76
2022-12-28T11:09:28.284Z,70.33
2022-12-28T11:12:19.186Z,70.64
2022-12-28T11:14:52.444Z,70.47
2022-12-28T11:17:25.934Z,70.25
2022-12-28T11:20:01.985Z,70.22
2022-12-28T11:22:34.997Z,69.74
2022-12-28T11:25:09.444Z,70.18
2022-12-28T11:27:41.141Z,70.02
2022-12-28T11:30:18.411Z,69.80
2022-12-28T11:32:55.145Z,69.76
2022-12-28T11:35:30.479Z,69.36
2022-12-28T11:38:04.394Z,69.43
2022-12-28T11:40:55.184Z,68.88
2022-12-28T11:43:41.779Z,68.95
2022-12-28T11:46:43.576Z,68.76
2022-12-28T11:49:30.802Z,69.16
2022-12-28T11:52:38.246Z,68.66
2022-12-28T11:55:40.999Z,68.62
2022-12-28T11:58:54.752Z,68.26
2022-12-28T12:01:53.306Z,68.00
2022-12-28T12:04:42.881Z,66.10
2022-12-28T12:07:56.919Z,66.35
2022-12-28T12:10:45.423Z,65.83
2022-12-28T12:13:50.121Z,65.97
2022-12-28T12:16:28.361Z,65.42
2022-12-28T12:19:01.029Z,64.91
2022-12-28T12:21:36.964Z,65.19
2022-12-28T12:24:27.004Z,65.59
2022-12-28T12:27:08.694Z,65.73
2022-12-28T12:29:49.515Z,65.16
2022-12-28T12:32:27.300Z,64.41
2022-12-28T12:35:03.278Z,62.87
2022-12-28T12:37:50.232Z,63.96
2022-12-28T12:40:57.550Z,64.13
2022-12-28T12:43:34.337Z,64.39
2022-12-28T12:46:41.572Z,64.32
2022-12-28T12:49:31.641Z,64.07
2022-12-28T12:52:15.865Z,64.26
2022-12-28T12:54:59.972Z,64.43
2022-12-28T12:57:41.114Z,63.80
2022-12-28T13:00:18.870Z,63.79
2022-12-28T13:03:24.425Z,63.85
2022-12-28T13:05:58.901Z,63.52
2022-12-28T13:08:37.079Z,63.31
2022-12-28T13:11:11.749Z,63.59
2022-12-28T13:13:46.433Z,63.51
2022-12-28T13:16:21.066Z,63.59
2022-12-28T13:18:58.554Z,63.54
2022-12-28T13:21:40.073Z,62.67
2022-12-28T13:24:22.984Z,62.73
2022-12-28T13:26:55.616Z,62.95
2022-12-28T13:29:29.028Z,63.02
2022-12-28T13:32:00.696Z,63.09
2022-12-28T13:34:35.192Z,62.35
2022-12-28T13:37:17.461Z,62.38
2022-12-28T13:39:49.431Z,62.41
2022-12-28T13:42:24.990Z,62.68
2022-12-28T13:45:00.871Z,62.90
2022-12-28T13:47:36.229Z,63.03
2022-12-28T13:50:11.876Z,62.96
2022-12-28T13:52:47.546Z,63.26
2022-12-28T13:55:23.261Z,63.43
2022-12-28T13:58:00.809Z,63.61
2022-12-28T14:00:35.063Z,63.78
2022-12-28T14:03:11.544Z,63.75
2022-12-28T14:05:50.536Z,63.85
2022-12-28T14:08:22.810Z,64.16
2022-12-28T14:10:55.710Z,63.96
2022-12-28T14:13:27.852Z,63.99
2022-12-28T14:16:00.136Z,64.17
2022-12-28T14:18:34.645Z,64.36
2022-12-28T14:21:07.176Z,64.32
2022-12-28T14:23:40.890Z,64.64
2022-12-28T14:26:19.341Z,64.81
2022-12-28T14:28:54.628Z,64.67
2022-12-28T14:31:31.058Z,64.70
2022-12-28T14:34:04.942Z,64.63
2022-12-28T14:36:40.400Z,64.71
2022-12-28T14:39:27.697Z,64.58
2022-12-28T14:42:00.552Z,64.56
2022-12-28T14:44:33.953Z,64.63
2022-12-28T14:47:25.803Z,64.21
2022-12-28T14:50:02.820Z,64.54
2022-12-28T14:52:43.945Z,64.68
2022-12-28T14:55:30.391Z,64.62
2022-12-28T14:58:06.106Z,64.52
2022-12-28T15:00:39.144Z,64.48
2022-12-28T15:03:21.078Z,64.93
2022-12-28T15:05:55.411Z,64.93
2022-12-28T15:08:38.137Z,64.90
2022-12-28T15:11:14.234Z,65.16
2022-12-28T15:13:46.251Z,65.17
2022-12-28T15:16:18.992Z,65.46
2022-12-28T15:18:50.823Z,65.42
2022-12-28T15:21:24.694Z,65.41
2022-12-28T15:23:57.785Z,65.58
2022-12-28T15:26:29.747Z,65.75
2022-12-28T15:29:07.526Z,65.83
2022-12-28T15:31:41.497Z,65.87
2022-12-28T15:34:15.910Z,66.13
2022-12-28T15:36:47.906Z,66.16
2022-12-28T15:39:19.520Z,66.36
2022-12-28T15:41:51.170Z,66.40
2022-12-28T15:44:23.026Z,66.57
2022-12-28T15:46:54.888Z,66.67
2022-12-28T15:49:26.750Z,66.73
2022-12-28T15:51:59.907Z,66.82
2022-12-28T15:54:31.660Z,66.91
2022-12-28T15:57:03.456Z,66.89
2022-12-28T15:59:35.168Z,67.04
2022-12-28T16:02:07.087Z,67.08
2022-12-28T16:04:38.944Z,67.23
2022-12-28T16:07:10.619Z,67.40
2022-12-28T16:09:42.424Z,67.48
2022-12-28T16:12:17.562Z,67.45
2022-12-28T16:14:50.074Z,67.67
2022-12-28T16:17:21.652Z,67.86
2022-12-28T16:19:53.474Z,67.70
2022-12-28T16:22:25.349Z,67.78
2022-12-28T16:24:57.221Z,67.76
2022-12-28T16:27:28.861Z,67.87
2022-12-28T16:30:00.540Z,67.98
2022-12-28T16:32:32.583Z,68.01
2022-12-28T16:35:04.433Z,68.18
2022-12-28T16:37:37.131Z,68.13
2022-12-28T16:40:11.787Z,68.32
2022-12-28T16:42:45.915Z,68.36
2022-12-28T16:45:18.070Z,68.39
2022-12-28T16:47:49.910Z,68.48
2022-12-28T16:50:21.534Z,68.47
2022-12-28T16:52:53.183Z,68.59
2022-12-28T16:55:24.860Z,68.74
2022-12-28T16:57:56.618Z,68.88
2022-12-28T17:00:28.214Z,68.81
2022-12-28T17:03:00.094Z,68.86
2022-12-28T17:05:35.028Z,68.89
2022-12-28T17:08:08.275Z,68.78
2022-12-28T17:10:43.616Z,68.89
2022-12-28T17:13:16.248Z,68.84
2022-12-28T17:15:48.880Z,68.87
2022-12-28T17:18:20.507Z,68.89
2022-12-28T17:20:52.187Z,68.83
2022-12-28T17:23:23.912Z,68.92
2022-12-28T17:25:57.055Z,68.88
2022-12-28T17:28:29.516Z,68.82
2022-12-28T17:31:09.545Z,68.81
2022-12-28T17:33:44.727Z,68.84
2022-12-28T17:36:16.645Z,68.81
2022-12-28T17:38:48.263Z,69.01
2022-12-28T17:41:22.390Z,69.03
2022-12-28T17:43:56.122Z,68.99
2022-12-28T17:46:30.490Z,69.03
2022-12-28T17:49:02.609Z,68.96
2022-12-28T17:51:35.665Z,69.02
2022-12-28T17:54:14.703Z,69.04
2022-12-28T17:56:46.622Z,69.08
2022-12-28T17:59:18.746Z,68.94
2022-12-28T18:01:50.414Z,68.72
2022-12-28T18:04:22.209Z,68.74
2022-12-28T18:06:53.852Z,68.89
2022-12-28T18:09:27.872Z,68.70
2022-12-28T18:12:00.351Z,68.59
2022-12-28T18:14:32.312Z,68.46
2022-12-28T18:17:04.069Z,68.54
2022-12-28T18:19:37.799Z,68.54
2022-12-28T18:22:07.830Z,68.52
2022-12-28T18:24:39.508Z,68.49
2022-12-28T18:27:11.416Z,68.44
2022-12-28T18:29:44.472Z,68.49
2022-12-28T18:32:16.098Z,68.58
2022-12-28T18:34:47.805Z,68.55
2022-12-28T18:37:19.389Z,68.72
2022-12-28T18:39:51.164Z,68.64
2022-12-28T18:42:22.732Z,68.84
2022-12-28T18:44:54.472Z,68.80
2022-12-28T18:47:26.580Z,68.96
2022-12-28T18:49:58.179Z,68.86
2022-12-28T18:52:31.478Z,68.95
2022-12-28T18:55:03.325Z,68.99
2022-12-28T18:57:35.023Z,68.95
2022-12-28T19:00:10.636Z,68.90
2022-12-28T19:02:42.408Z,68.99
2022-12-28T19:05:14.248Z,69.03
2022-12-28T19:07:49.337Z,68.97
2022-12-28T19:10:21.455Z,69.01
2022-12-28T19:12:53.068Z,69.12
2022-12-28T19:15:24.801Z,69.20
2022-12-28T19:17:56.629Z,69.32
2022-12-28T19:20:29.318Z,69.13
2022-12-28T19:23:00.955Z,69.11
2022-12-28T19:25:32.632Z,69.30
2022-12-28T19:28:05.503Z,69.26
2022-12-28T19:30:37.246Z,69.14
2022-12-28T19:33:08.908Z,69.25
2022-12-28T19:35:41.514Z,69.29
2022-12-28T19:38:13.274Z,69.10
2022-12-28T19:40:44.919Z,68.86
2022-12-28T19:43:16.533Z,68.98
2022-12-28T19:45:48.219Z,68.99
2022-12-28T19:48:20.904Z,68.99
2022-12-28T19:50:52.709Z,68.82
2022-12-28T19:53:24.316Z,68.75
2022-12-28T19:56:04.223Z,68.60
2022-12-28T19:58:39.034Z,68.72
2022-12-28T20:01:13.213Z,68.53
2022-12-28T20:03:45.902Z,68.63
2022-12-28T20:06:19.271Z,68.47
2022-12-28T20:08:52.528Z,68.60
2022-12-28T20:11:24.341Z,68.34
2022-12-28T20:13:58.083Z,68.12
2022-12-28T20:16:32.486Z,68.32
2022-12-28T20:19:06.765Z,68.19
2022-12-28T20:21:41.545Z,68.06
2022-12-28T20:24:14.957Z,67.93
2022-12-28T20:26:46.633Z,68.08
2022-12-28T20:29:18.456Z,67.91
2022-12-28T20:31:52.185Z,67.98
2022-12-28T20:34:23.936Z,67.84
2022-12-28T20:36:55.727Z,67.76
2022-12-28T20:39:27.387Z,67.71
2022-12-28T20:42:16.594Z,67.89
2022-12-28T20:44:48.818Z,67.78
2022-12-28T20:47:21.217Z,67.55
2022-12-28T20:49:53.173Z,67.64
2022-12-28T20:52:24.812Z,67.54
2022-12-28T20:54:56.585Z,67.59
2022-12-28T20:57:28.455Z,67.20
2022-12-28T21:00:00.069Z,67.38
2022-12-28T21:02:31.920Z,67.29
2022-12-28T21:05:03.599Z,67.39
2022-12-28T21:07:35.329Z,67.19
2022-12-28T21:10:08.299Z,66.86
2022-12-28T21:12:39.990Z,67.07
2022-12-28T21:15:13.154Z,67.05
2022-12-28T21:17:45.011Z,66.89
2022-12-28T21:20:16.749Z,66.61
2022-12-28T21:22:48.345Z,66.92
2022-12-28T21:25:20.001Z,66.85
2022-12-28T21:27:51.752Z,66.74
2022-12-28T21:30:23.343Z,66.74
2022-12-28T21:32:57.267Z,66.59
2022-12-28T21:35:33.875Z,66.69
2022-12-28T21:38:07.048Z,66.59
2022-12-28T21:40:38.685Z,66.54
2022-12-28T21:43:10.328Z,66.77
2022-12-28T21:45:41.922Z,66.28
2022-12-28T21:48:13.663Z,66.16
2022-12-28T21:50:45.281Z,66.03
2022-12-28T21:53:16.927Z,66.00
2022-12-28T21:55:48.524Z,66.22
2022-12-28T21:58:20.192Z,65.99
2022-12-28T22:01:09.526Z,65.83
2022-12-28T22:03:59.072Z,65.90
2022-12-28T22:06:31.114Z,65.70
2022-12-28T22:09:20.475Z,65.49
2022-12-28T22:12:10.105Z,65.17
2022-12-28T22:14:41.902Z,65.20
2022-12-28T22:17:14.713Z,65.39
2022-12-28T22:19:46.680Z,65.28
2022-12-28T22:22:18.420Z,65.45
2022-12-28T22:24:50.025Z,65.07
2022-12-28T22:27:21.687Z,65.27
2022-12-28T22:29:53.445Z,64.98
2022-12-28T22:32:25.624Z,65.13
2022-12-28T22:34:57.317Z,64.94
2022-12-28T22:37:29.017Z,65.11
2022-12-28T22:40:00.805Z,65.10
2022-12-28T22:42:32.995Z,64.99
2022-12-28T22:45:04.802Z,65.00
2022-12-28T22:47:36.425Z,64.43
2022-12-28T22:50:11.114Z,64.71
2022-12-28T22:52:42.746Z,64.50
2022-12-28T22:55:14.390Z,64.29
2022-12-28T22:57:46.324Z,64.28
2022-12-28T23:00:18.855Z,64.16
2022-12-28T23:02:50.816Z,64.18
2022-12-28T23:05:22.735Z,63.67
2022-12-28T23:07:54.399Z,63.42
2022-12-28T23:10:26.127Z,63.43
2022-12-28T23:12:57.716Z,63.27
2022-12-28T23:15:29.355Z,63.60
2022-12-28T23:18:21.234Z,63.26
2022-12-28T23:21:25.307Z,63.11
2022-12-28T23:24:14.830Z,63.28
2022-12-28T23:27:04.228Z,63.13
2022-12-28T23:29:35.826Z,62.96
2022-12-28T23:32:07.605Z,63.53
2022-12-28T23:34:39.222Z,62.96
2022-12-28T23:37:10.819Z,63.37
2022-12-28T23:39:42.403Z,63.28
2022-12-28T23:42:14.056Z,63.21
2022-12-28T23:44:46.154Z,63.38
2022-12-28T23:47:18.037Z,63.37
2022-12-28T23:49:50.763Z,63.51
2022-12-28T23:52:25.990Z,63.89
2022-12-28T23:54:57.941Z,63.75
2022-12-28T23:57:29.553Z,63.21
